• Join FlightAware (Why Join?)
  • Login
  • US Flag 
10:02AM EDT


 

Airport Tracker/Info


-or-


 

Live Flight TrackerFlight Track Log ✈ AMF4328 ✈ 18-May-2013 ✈ KDFW - KSAT

Flight Track Log - Related Links

Times and Time Zones

All times are in EDT time to prevent confusion due to time zone crossing. See the AMF4328 flight status page for this flight to view local times or setup timezone preferences in your user account.

Time Position Orientation Groundspeed Altitude Reporting Facility
EDT Latitude Longitude Course Direction KTS MPH feet Rate Location/Type
04:07AM 32.8833 -97.0500 232° Southwest 146 168 1,500  Level Dallas / Fort Worth TRACON
04:08AM 32.8500 -97.1000 232° Southwest 176 203 2,900 720 Climbing Dallas / Fort Worth TRACON
04:09AM 32.8000 -97.1167 196° South 195 224 3,200 1,200 Climbing Dallas / Fort Worth TRACON
04:10AM 32.7667 -97.1500 220° Southwest 183 211 5,300 1,800 Climbing Dallas / Fort Worth TRACON
04:10AM 32.7350 -97.1592 194° South 185 213 5,800 1,680 Climbing Fort Worth Center
04:11AM 32.6953 -97.1739 197° South 185 213 7,700 1,860 Climbing Fort Worth Center
04:12AM 32.6392 -97.1989 201° Southwest 195 224 9,600 1,620 Climbing Fort Worth Center
04:13AM 32.5911 -97.2186 199° South 207 238 11,000 1,500 Climbing Fort Worth Center
04:14AM 32.5283 -97.2408 197° South 212 244 12,600 1,440 Climbing Fort Worth Center
04:15AM 32.4764 -97.2656 202° Southwest 217 250 13,900 1,560 Climbing Fort Worth Center
04:16AM 32.4094 -97.2928 199° South 229 264 15,800 1,620 Climbing Fort Worth Center
04:17AM 32.3553 -97.3150 199° South 229 264 17,200 1,440 Climbing Fort Worth Center
04:18AM 32.2842 -97.3444 199° South 234 269 18,700 1,440 Climbing Fort Worth Center
04:19AM 32.2258 -97.3667 198° South 247 284 20,100 600 Climbing Fort Worth Center
04:20AM 32.1506 -97.3986 200° South 259 298 20,000 -60 Descending Fort Worth Center
04:21AM 32.0881 -97.4256 200° South 269 310 20,000  Level Fort Worth Center
04:22AM 32.0086 -97.4575 199° South 269 310 20,000  Level Fort Worth Center
04:24AM 31.8744 -97.5122 199° South 274 315 20,000  Level Houston Center
04:25AM 31.8133 -97.5383 200° South 275 316 20,000  Level Houston Center
04:26AM 31.7414 -97.5694 200° South 275 316 20,000  Level Houston Center
04:27AM 31.6694 -97.5972 198° South 271 312 20,000  Level Houston Center
04:28AM 31.5972 -97.6269 199° South 271 312 20,000  Level Houston Center
04:29AM 31.5261 -97.6583 201° Southwest 272 313 20,000  Level Houston Center
04:30AM 31.4553 -97.6867 199° South 268 308 20,000  Level Houston Center
04:31AM 31.3836 -97.7150 199° South 269 310 20,000  Level Houston Center
04:32AM 31.3128 -97.7458 200° South 270 311 20,000  Level Houston Center
04:33AM 31.2417 -97.7753 199° South 269 310 20,000  Level Houston Center
04:34AM 31.1736 -97.8114 204° Southwest 268 308 20,000  Level Houston Center
04:35AM 31.1044 -97.8461 203° Southwest 269 310 20,000  Level Houston Center
04:36AM 31.0339 -97.8781 201° Southwest 269 310 20,000  Level Houston Center
04:37AM 30.9644 -97.9142 204° Southwest 272 313 20,000  Level Houston Center
04:38AM 30.8956 -97.9469 202° Southwest 267 307 20,000  Level Houston Center
04:39AM 30.8256 -97.9803 202° Southwest 269 310 20,000  Level Houston Center
04:40AM 30.7564 -98.0142 203° Southwest 268 308 20,000  Level Houston Center
04:41AM 30.6869 -98.0486 203° Southwest 269 310 20,000  Level Houston Center
04:42AM 30.6167 -98.0819 202° Southwest 270 311 20,000  Level Houston Center
04:43AM 30.5472 -98.1153 202° Southwest 269 310 20,000  Level Houston Center
04:44AM 30.4772 -98.1494 203° Southwest 272 313 20,000  Level Houston Center
04:45AM 30.4069 -98.1842 203° Southwest 272 313 20,000 -660 Level Houston Center
04:46AM 30.3350 -98.2194 203° Southwest 277 319 18,700 -1,380 Descending Houston Center
04:46AM 30.3075 -98.2308 200° South 292 336 18,300 -1,200 Descending Houston Center
04:47AM 30.2528 -98.2489 196° South 299 344 17,500 -1,320 Descending Houston Center
04:48AM 30.2225 -98.2631 202° Southwest 304 350 16,900 -1,920 Descending Houston Center
04:48AM 30.1733 -98.2822 199° South 302 348 15,600 -1,680 Descending Houston Center
04:49AM 30.1436 -98.2969 203° Southwest 303 349 15,200 -1,620 Descending Houston Center
04:49AM 30.0978 -98.3206 204° Southwest 297 342 14,000 -1,620 Descending Houston Center
04:50AM 30.0722 -98.3419 216° Southwest 294 338 13,600 -1,440 Descending Houston Center
04:50AM 30.0294 -98.3711 211° Southwest 289 333 12,600 -2,040 Descending Houston Center
04:51AM 29.9994 -98.3967 216° Southwest 285 328 11,600 -1,920 Descending Houston Center
04:51AM 29.9650 -98.4231 214° Southwest 283 326 10,700 -1,800 Descending Houston Center
04:52AM 29.9369 -98.4478 217° Southwest 281 323 9,800 -2,340 Descending Houston Center
04:52AM 29.8986 -98.4786 215° Southwest 261 300 8,400 -1,800 Descending Houston Center
04:53AM 29.8744 -98.4986 216° Southwest 271 312 8,000 -1,320 Descending Houston Center
04:53AM 29.8403 -98.5264 215° Southwest 254 292 7,100 -1,500 Descending Houston Center
04:54AM 29.8178 -98.5439 214° Southwest 248 285 6,500 -1,440 Descending Houston Center
04:54AM 29.7811 -98.5672 209° Southwest 248 285 5,700 -1,380 Descending Houston Center
04:55AM 29.7583 -98.5822 210° Southwest 242 278 5,100 -1,320 Descending Houston Center
04:55AM 29.7308 -98.6169 228° Southwest 247 284 4,400 -1,020 Descending Houston Center
04:56AM 29.7128 -98.6383 226° Southwest 240 276 4,100 -900 Descending Houston Center
04:56AM 29.6753 -98.6350 176° South 231 266 3,500 -600 Descending Houston Center
04:57AM 29.6550 -98.6258 159° South 218 251 3,500 -300 Level Houston Center
04:57AM 29.6292 -98.5961 135° Southeast 216 249 3,200 -600 Descending Houston Center
04:58AM 29.6106 -98.5736 134° Southeast 215 247 2,900 -900 Descending Houston Center
04:58AM 29.5889 -98.5447 131° Southeast 217 250 2,300 -1,200 Descending Houston Center
04:59AM 29.5722 -98.5228 131° Southeast 210 242 1,700 -1,020 Descending Houston Center
04:59AM 29.5572 -98.5000 127° Southeast 171 197 1,300 -720 Descending Houston Center
05:00AM 29.5461 -98.4900 142° Southeast 103 119 1,000 -540 Descending Houston Center
05:00AM 29.5386 -98.4772 124° Southeast 107 123 800 -420 Descending Houston Center
05:02AM 29.5333 -98.4667 133° Southeast  Level FlightAware Approximate
05:09AM 29.5340 -98.4691 133° Southeast  Level Estimated